sensor_id;sensor_type;location;lat;lon;timestamp;P1;durP1;ratioP1;P2;durP2;ratioP2
14907;SDS011;7545;52.092;7.006;2023-05-23T00:01:32;5.38;;;3.67;;
14907;SDS011;7545;52.092;7.006;2023-05-23T00:04:01;4.80;;;3.83;;
14907;SDS011;7545;52.092;7.006;2023-05-23T00:06:27;4.50;;;4.10;;
14907;SDS011;7545;52.092;7.006;2023-05-23T00:08:52;6.20;;;4.40;;
14907;SDS011;7545;52.092;7.006;2023-05-23T00:11:18;4.82;;;4.30;;
14907;SDS011;7545;52.092;7.006;2023-05-23T00:13:48;7.32;;;4.90;;
14907;SDS011;7545;52.092;7.006;2023-05-23T00:16:15;5.03;;;4.22;;
14907;SDS011;7545;52.092;7.006;2023-05-23T00:18:41;6.97;;;5.07;;
14907;SDS011;7545;52.092;7.006;2023-05-23T00:21:07;7.00;;;4.40;;
14907;SDS011;7545;52.092;7.006;2023-05-23T00:23:33;6.07;;;4.40;;
14907;SDS011;7545;52.092;7.006;2023-05-23T00:25:59;5.15;;;3.80;;
14907;SDS011;7545;52.092;7.006;2023-05-23T00:28:25;5.07;;;4.55;;
14907;SDS011;7545;52.092;7.006;2023-05-23T00:30:51;8.00;;;4.63;;
14907;SDS011;7545;52.092;7.006;2023-05-23T00:33:17;8.35;;;4.75;;
14907;SDS011;7545;52.092;7.006;2023-05-23T00:35:45;6.47;;;4.75;;
14907;SDS011;7545;52.092;7.006;2023-05-23T00:38:11;5.10;;;4.55;;
14907;SDS011;7545;52.092;7.006;2023-05-23T00:40:38;5.88;;;4.88;;
14907;SDS011;7545;52.092;7.006;2023-05-23T00:43:04;8.65;;;5.03;;
14907;SDS011;7545;52.092;7.006;2023-05-23T00:45:30;10.07;;;5.10;;
14907;SDS011;7545;52.092;7.006;2023-05-23T00:47:56;9.43;;;5.43;;
14907;SDS011;7545;52.092;7.006;2023-05-23T00:50:23;7.70;;;5.13;;
14907;SDS011;7545;52.092;7.006;2023-05-23T00:52:49;8.80;;;6.10;;
14907;SDS011;7545;52.092;7.006;2023-05-23T00:55:15;8.68;;;5.85;;
14907;SDS011;7545;52.092;7.006;2023-05-23T00:57:41;10.13;;;6.95;;
14907;SDS011;7545;52.092;7.006;2023-05-23T01:00:08;11.00;;;6.88;;
14907;SDS011;7545;52.092;7.006;2023-05-23T01:02:42;8.23;;;6.07;;
14907;SDS011;7545;52.092;7.006;2023-05-23T01:05:09;13.02;;;6.63;;
14907;SDS011;7545;52.092;7.006;2023-05-23T01:07:38;11.35;;;6.38;;
14907;SDS011;7545;52.092;7.006;2023-05-23T01:10:22;10.38;;;7.57;;
14907;SDS011;7545;52.092;7.006;2023-05-23T01:15:44;11.20;;;7.40;;
14907;SDS011;7545;52.092;7.006;2023-05-23T01:21:15;14.48;;;8.20;;
14907;SDS011;7545;52.092;7.006;2023-05-23T01:29:00;10.30;;;7.65;;
14907;SDS011;7545;52.092;7.006;2023-05-23T01:31:36;14.68;;;9.57;;
14907;SDS011;7545;52.092;7.006;2023-05-23T01:34:06;12.30;;;9.65;;
14907;SDS011;7545;52.092;7.006;2023-05-23T01:36:33;14.60;;;9.43;;
14907;SDS011;7545;52.092;7.006;2023-05-23T01:39:02;16.42;;;9.60;;
14907;SDS011;7545;52.092;7.006;2023-05-23T01:41:28;14.93;;;9.45;;
14907;SDS011;7545;52.092;7.006;2023-05-23T01:43:53;16.98;;;8.68;;
14907;SDS011;7545;52.092;7.006;2023-05-23T01:46:20;16.00;;;8.45;;
14907;SDS011;7545;52.092;7.006;2023-05-23T01:48:46;12.98;;;8.93;;
14907;SDS011;7545;52.092;7.006;2023-05-23T01:51:13;11.38;;;8.20;;
14907;SDS011;7545;52.092;7.006;2023-05-23T01:53:39;13.02;;;8.18;;
14907;SDS011;7545;52.092;7.006;2023-05-23T01:56:05;10.27;;;6.80;;
14907;SDS011;7545;52.092;7.006;2023-05-23T01:58:32;10.30;;;7.45;;
14907;SDS011;7545;52.092;7.006;2023-05-23T02:00:58;10.45;;;6.93;;
14907;SDS011;7545;52.092;7.006;2023-05-23T02:03:23;9.68;;;6.40;;
14907;SDS011;7545;52.092;7.006;2023-05-23T02:05:49;10.27;;;6.55;;
14907;SDS011;7545;52.092;7.006;2023-05-23T02:08:15;10.32;;;7.32;;
14907;SDS011;7545;52.092;7.006;2023-05-23T02:10:41;10.35;;;7.32;;
14907;SDS011;7545;52.092;7.006;2023-05-23T02:13:06;9.05;;;6.20;;
14907;SDS011;7545;52.092;7.006;2023-05-23T02:15:32;8.68;;;5.28;;
14907;SDS011;7545;52.092;7.006;2023-05-23T02:17:58;10.02;;;6.00;;
14907;SDS011;7545;52.092;7.006;2023-05-23T02:20:23;7.50;;;5.32;;
14907;SDS011;7545;52.092;7.006;2023-05-23T02:22:49;8.30;;;5.35;;
14907;SDS011;7545;52.092;7.006;2023-05-23T02:25:15;8.38;;;5.57;;
14907;SDS011;7545;52.092;7.006;2023-05-23T02:27:41;9.80;;;5.50;;
14907;SDS011;7545;52.092;7.006;2023-05-23T02:30:06;9.40;;;5.90;;
14907;SDS011;7545;52.092;7.006;2023-05-23T02:32:33;10.48;;;5.60;;
14907;SDS011;7545;52.092;7.006;2023-05-23T02:34:58;10.35;;;5.82;;
14907;SDS011;7545;52.092;7.006;2023-05-23T02:37:24;12.07;;;5.78;;
14907;SDS011;7545;52.092;7.006;2023-05-23T02:39:50;10.63;;;6.18;;
14907;SDS011;7545;52.092;7.006;2023-05-23T02:42:15;9.63;;;5.85;;
14907;SDS011;7545;52.092;7.006;2023-05-23T02:44:41;11.43;;;5.75;;
14907;SDS011;7545;52.092;7.006;2023-05-23T02:47:06;9.23;;;6.07;;
14907;SDS011;7545;52.092;7.006;2023-05-23T02:49:32;8.40;;;5.57;;
14907;SDS011;7545;52.092;7.006;2023-05-23T02:51:58;9.43;;;5.30;;
14907;SDS011;7545;52.092;7.006;2023-05-23T02:54:24;9.50;;;5.43;;
14907;SDS011;7545;52.092;7.006;2023-05-23T02:56:50;6.75;;;5.00;;
14907;SDS011;7545;52.092;7.006;2023-05-23T02:59:17;7.00;;;5.22;;
14907;SDS011;7545;52.092;7.006;2023-05-23T03:01:43;7.72;;;4.90;;
14907;SDS011;7545;52.092;7.006;2023-05-23T03:04:08;7.43;;;4.68;;
14907;SDS011;7545;52.092;7.006;2023-05-23T03:06:34;6.28;;;4.53;;
14907;SDS011;7545;52.092;7.006;2023-05-23T03:09:00;6.07;;;4.78;;
14907;SDS011;7545;52.092;7.006;2023-05-23T03:11:26;7.65;;;5.00;;
14907;SDS011;7545;52.092;7.006;2023-05-23T03:13:53;6.22;;;4.82;;
14907;SDS011;7545;52.092;7.006;2023-05-23T03:16:20;8.55;;;5.88;;
14907;SDS011;7545;52.092;7.006;2023-05-23T03:18:47;9.85;;;6.40;;
14907;SDS011;7545;52.092;7.006;2023-05-23T03:21:13;10.27;;;5.13;;
14907;SDS011;7545;52.092;7.006;2023-05-23T03:23:38;10.48;;;6.70;;
14907;SDS011;7545;52.092;7.006;2023-05-23T03:26:04;9.05;;;6.00;;
14907;SDS011;7545;52.092;7.006;2023-05-23T03:28:30;7.85;;;6.10;;
14907;SDS011;7545;52.092;7.006;2023-05-23T03:30:56;9.73;;;6.22;;
14907;SDS011;7545;52.092;7.006;2023-05-23T03:33:22;15.02;;;6.40;;
14907;SDS011;7545;52.092;7.006;2023-05-23T03:35:48;12.98;;;7.80;;
14907;SDS011;7545;52.092;7.006;2023-05-23T03:38:14;11.63;;;6.90;;
14907;SDS011;7545;52.092;7.006;2023-05-23T03:40:40;11.25;;;6.60;;
14907;SDS011;7545;52.092;7.006;2023-05-23T03:43:05;11.80;;;7.43;;
14907;SDS011;7545;52.092;7.006;2023-05-23T03:45:32;12.52;;;7.55;;
14907;SDS011;7545;52.092;7.006;2023-05-23T03:47:58;11.10;;;7.28;;
14907;SDS011;7545;52.092;7.006;2023-05-23T03:50:24;11.75;;;7.35;;
14907;SDS011;7545;52.092;7.006;2023-05-23T03:52:50;11.85;;;8.20;;
14907;SDS011;7545;52.092;7.006;2023-05-23T03:55:16;17.63;;;8.57;;
14907;SDS011;7545;52.092;7.006;2023-05-23T03:57:46;13.75;;;6.93;;
14907;SDS011;7545;52.092;7.006;2023-05-23T04:00:16;12.07;;;7.10;;
14907;SDS011;7545;52.092;7.006;2023-05-23T04:02:43;13.13;;;7.03;;
14907;SDS011;7545;52.092;7.006;2023-05-23T04:05:10;10.63;;;7.40;;
14907;SDS011;7545;52.092;7.006;2023-05-23T04:07:36;15.57;;;7.47;;
14907;SDS011;7545;52.092;7.006;2023-05-23T04:10:02;11.25;;;8.02;;
14907;SDS011;7545;52.092;7.006;2023-05-23T04:12:28;16.75;;;7.30;;
14907;SDS011;7545;52.092;7.006;2023-05-23T04:14:57;14.63;;;6.55;;
14907;SDS011;7545;52.092;7.006;2023-05-23T04:17:23;10.20;;;6.38;;
14907;SDS011;7545;52.092;7.006;2023-05-23T04:19:52;8.60;;;5.78;;
14907;SDS011;7545;52.092;7.006;2023-05-23T04:22:18;9.02;;;6.13;;
14907;SDS011;7545;52.092;7.006;2023-05-23T04:24:43;9.57;;;5.60;;
14907;SDS011;7545;52.092;7.006;2023-05-23T04:27:09;9.18;;;6.10;;
14907;SDS011;7545;52.092;7.006;2023-05-23T04:29:35;7.05;;;4.90;;
14907;SDS011;7545;52.092;7.006;2023-05-23T04:32:02;10.27;;;5.20;;
14907;SDS011;7545;52.092;7.006;2023-05-23T04:34:27;7.38;;;5.90;;
14907;SDS011;7545;52.092;7.006;2023-05-23T04:36:54;8.70;;;5.43;;
14907;SDS011;7545;52.092;7.006;2023-05-23T04:39:20;7.68;;;5.20;;
14907;SDS011;7545;52.092;7.006;2023-05-23T04:41:46;7.45;;;5.65;;
14907;SDS011;7545;52.092;7.006;2023-05-23T04:44:11;9.20;;;6.22;;
14907;SDS011;7545;52.092;7.006;2023-05-23T04:46:38;9.93;;;6.13;;
14907;SDS011;7545;52.092;7.006;2023-05-23T04:49:09;13.40;;;6.80;;
14907;SDS011;7545;52.092;7.006;2023-05-23T04:51:35;9.77;;;5.45;;
14907;SDS011;7545;52.092;7.006;2023-05-23T04:54:02;8.10;;;5.47;;
14907;SDS011;7545;52.092;7.006;2023-05-23T04:56:27;8.13;;;5.45;;
14907;SDS011;7545;52.092;7.006;2023-05-23T04:58:53;8.10;;;5.25;;
14907;SDS011;7545;52.092;7.006;2023-05-23T05:01:19;10.02;;;5.95;;
14907;SDS011;7545;52.092;7.006;2023-05-23T05:03:48;8.90;;;5.70;;
14907;SDS011;7545;52.092;7.006;2023-05-23T05:06:14;8.43;;;5.85;;
14907;SDS011;7545;52.092;7.006;2023-05-23T05:08:41;10.90;;;5.53;;
14907;SDS011;7545;52.092;7.006;2023-05-23T05:11:07;10.63;;;6.20;;
14907;SDS011;7545;52.092;7.006;2023-05-23T05:13:33;13.45;;;6.28;;
14907;SDS011;7545;52.092;7.006;2023-05-23T05:15:59;15.43;;;6.40;;
14907;SDS011;7545;52.092;7.006;2023-05-23T05:18:25;14.05;;;6.32;;
14907;SDS011;7545;52.092;7.006;2023-05-23T05:20:51;10.30;;;5.55;;
14907;SDS011;7545;52.092;7.006;2023-05-23T05:23:17;12.18;;;6.55;;
14907;SDS011;7545;52.092;7.006;2023-05-23T05:25:43;13.05;;;6.15;;
14907;SDS011;7545;52.092;7.006;2023-05-23T05:28:09;12.82;;;5.68;;
14907;SDS011;7545;52.092;7.006;2023-05-23T05:30:34;14.60;;;6.22;;
14907;SDS011;7545;52.092;7.006;2023-05-23T05:33:03;9.18;;;5.95;;
14907;SDS011;7545;52.092;7.006;2023-05-23T05:35:30;13.05;;;7.47;;
14907;SDS011;7545;52.092;7.006;2023-05-23T05:37:56;9.13;;;5.38;;
14907;SDS011;7545;52.092;7.006;2023-05-23T05:40:22;10.30;;;5.50;;
14907;SDS011;7545;52.092;7.006;2023-05-23T05:42:48;8.88;;;4.90;;
14907;SDS011;7545;52.092;7.006;2023-05-23T05:45:13;12.25;;;5.82;;
14907;SDS011;7545;52.092;7.006;2023-05-23T05:47:39;5.90;;;4.82;;
14907;SDS011;7545;52.092;7.006;2023-05-23T05:50:05;8.95;;;4.97;;
14907;SDS011;7545;52.092;7.006;2023-05-23T05:52:34;8.40;;;5.05;;
14907;SDS011;7545;52.092;7.006;2023-05-23T05:55:04;11.80;;;5.15;;
14907;SDS011;7545;52.092;7.006;2023-05-23T05:57:30;11.05;;;5.93;;
14907;SDS011;7545;52.092;7.006;2023-05-23T05:59:57;5.80;;;4.45;;
14907;SDS011;7545;52.092;7.006;2023-05-23T06:02:22;6.43;;;4.65;;
14907;SDS011;7545;52.092;7.006;2023-05-23T06:04:48;6.13;;;3.70;;
14907;SDS011;7545;52.092;7.006;2023-05-23T06:07:14;7.05;;;4.68;;
14907;SDS011;7545;52.092;7.006;2023-05-23T06:09:39;11.57;;;5.10;;
14907;SDS011;7545;52.092;7.006;2023-05-23T06:12:05;10.93;;;4.85;;
14907;SDS011;7545;52.092;7.006;2023-05-23T06:14:31;9.10;;;4.25;;
14907;SDS011;7545;52.092;7.006;2023-05-23T06:16:57;10.07;;;5.03;;
14907;SDS011;7545;52.092;7.006;2023-05-23T06:19:22;8.65;;;4.68;;
14907;SDS011;7545;52.092;7.006;2023-05-23T06:21:49;11.02;;;4.25;;
14907;SDS011;7545;52.092;7.006;2023-05-23T06:24:14;6.25;;;3.80;;
14907;SDS011;7545;52.092;7.006;2023-05-23T06:26:40;10.38;;;4.80;;
14907;SDS011;7545;52.092;7.006;2023-05-23T06:29:06;12.02;;;4.78;;
14907;SDS011;7545;52.092;7.006;2023-05-23T06:31:31;8.95;;;4.72;;
14907;SDS011;7545;52.092;7.006;2023-05-23T06:33:57;11.07;;;4.07;;
14907;SDS011;7545;52.092;7.006;2023-05-23T06:36:23;6.57;;;2.97;;
14907;SDS011;7545;52.092;7.006;2023-05-23T06:38:48;4.97;;;3.75;;
14907;SDS011;7545;52.092;7.006;2023-05-23T06:41:14;8.93;;;3.80;;
14907;SDS011;7545;52.092;7.006;2023-05-23T06:43:39;7.53;;;4.00;;
14907;SDS011;7545;52.092;7.006;2023-05-23T06:46:05;9.18;;;3.42;;
14907;SDS011;7545;52.092;7.006;2023-05-23T06:48:31;9.15;;;3.47;;
14907;SDS011;7545;52.092;7.006;2023-05-23T06:50:56;9.32;;;3.25;;
14907;SDS011;7545;52.092;7.006;2023-05-23T06:53:22;4.53;;;3.08;;
14907;SDS011;7545;52.092;7.006;2023-05-23T06:55:47;4.65;;;2.50;;
14907;SDS011;7545;52.092;7.006;2023-05-23T06:58:13;6.18;;;2.80;;
14907;SDS011;7545;52.092;7.006;2023-05-23T07:00:39;6.15;;;2.10;;
14907;SDS011;7545;52.092;7.006;2023-05-23T07:03:05;3.75;;;2.38;;
14907;SDS011;7545;52.092;7.006;2023-05-23T07:05:31;7.03;;;2.90;;
14907;SDS011;7545;52.092;7.006;2023-05-23T07:07:58;6.40;;;3.17;;
14907;SDS011;7545;52.092;7.006;2023-05-23T07:10:23;4.97;;;2.60;;
14907;SDS011;7545;52.092;7.006;2023-05-23T07:12:50;5.38;;;2.83;;
14907;SDS011;7545;52.092;7.006;2023-05-23T07:15:16;3.55;;;2.63;;
14907;SDS011;7545;52.092;7.006;2023-05-23T07:17:41;4.35;;;2.70;;
14907;SDS011;7545;52.092;7.006;2023-05-23T07:20:07;4.40;;;2.92;;
14907;SDS011;7545;52.092;7.006;2023-05-23T07:22:33;9.85;;;2.90;;
14907;SDS011;7545;52.092;7.006;2023-05-23T07:24:59;6.03;;;2.75;;
14907;SDS011;7545;52.092;7.006;2023-05-23T07:27:25;6.68;;;3.38;;
14907;SDS011;7545;52.092;7.006;2023-05-23T07:29:51;6.80;;;3.92;;
14907;SDS011;7545;52.092;7.006;2023-05-23T07:32:17;6.93;;;3.70;;
14907;SDS011;7545;52.092;7.006;2023-05-23T07:34:42;5.97;;;3.63;;
14907;SDS011;7545;52.092;7.006;2023-05-23T07:37:08;8.25;;;4.80;;
14907;SDS011;7545;52.092;7.006;2023-05-23T07:39:33;9.82;;;3.75;;
14907;SDS011;7545;52.092;7.006;2023-05-23T07:41:59;11.52;;;4.43;;
14907;SDS011;7545;52.092;7.006;2023-05-23T07:44:25;10.10;;;4.05;;
14907;SDS011;7545;52.092;7.006;2023-05-23T07:46:50;9.70;;;4.10;;
14907;SDS011;7545;52.092;7.006;2023-05-23T07:49:16;9.48;;;3.67;;
14907;SDS011;7545;52.092;7.006;2023-05-23T07:51:41;5.88;;;3.63;;
14907;SDS011;7545;52.092;7.006;2023-05-23T07:54:07;8.95;;;4.40;;
14907;SDS011;7545;52.092;7.006;2023-05-23T07:56:33;9.50;;;4.15;;
14907;SDS011;7545;52.092;7.006;2023-05-23T07:58:59;11.20;;;4.43;;
14907;SDS011;7545;52.092;7.006;2023-05-23T08:01:24;9.68;;;4.20;;
14907;SDS011;7545;52.092;7.006;2023-05-23T08:03:50;8.40;;;3.92;;
14907;SDS011;7545;52.092;7.006;2023-05-23T08:06:15;11.02;;;4.20;;
14907;SDS011;7545;52.092;7.006;2023-05-23T08:08:41;8.38;;;4.45;;
14907;SDS011;7545;52.092;7.006;2023-05-23T08:11:08;9.60;;;4.40;;
14907;SDS011;7545;52.092;7.006;2023-05-23T08:13:33;11.30;;;3.95;;
14907;SDS011;7545;52.092;7.006;2023-05-23T08:15:59;8.93;;;3.58;;
14907;SDS011;7545;52.092;7.006;2023-05-23T08:18:25;11.27;;;4.80;;
14907;SDS011;7545;52.092;7.006;2023-05-23T08:20:51;8.00;;;3.83;;
14907;SDS011;7545;52.092;7.006;2023-05-23T08:23:17;7.20;;;3.83;;
14907;SDS011;7545;52.092;7.006;2023-05-23T08:25:43;10.48;;;3.67;;
14907;SDS011;7545;52.092;7.006;2023-05-23T08:28:09;8.95;;;4.32;;
14907;SDS011;7545;52.092;7.006;2023-05-23T08:30:34;8.13;;;3.70;;
14907;SDS011;7545;52.092;7.006;2023-05-23T08:33:00;8.77;;;3.67;;
14907;SDS011;7545;52.092;7.006;2023-05-23T08:35:28;8.25;;;3.67;;
14907;SDS011;7545;52.092;7.006;2023-05-23T08:37:59;11.77;;;3.55;;
14907;SDS011;7545;52.092;7.006;2023-05-23T08:40:25;6.28;;;3.10;;
14907;SDS011;7545;52.092;7.006;2023-05-23T08:42:53;10.30;;;3.58;;
14907;SDS011;7545;52.092;7.006;2023-05-23T08:45:19;6.25;;;3.13;;
14907;SDS011;7545;52.092;7.006;2023-05-23T08:47:47;10.93;;;4.10;;
14907;SDS011;7545;52.092;7.006;2023-05-23T08:50:15;5.45;;;3.42;;
14907;SDS011;7545;52.092;7.006;2023-05-23T08:52:42;6.63;;;3.65;;
14907;SDS011;7545;52.092;7.006;2023-05-23T08:55:12;10.20;;;3.47;;
14907;SDS011;7545;52.092;7.006;2023-05-23T08:57:39;6.97;;;3.03;;
14907;SDS011;7545;52.092;7.006;2023-05-23T09:00:10;6.10;;;3.30;;
14907;SDS011;7545;52.092;7.006;2023-05-23T09:02:38;6.72;;;2.88;;
14907;SDS011;7545;52.092;7.006;2023-05-23T09:05:07;8.10;;;3.17;;
14907;SDS011;7545;52.092;7.006;2023-05-23T09:07:33;6.82;;;3.42;;
14907;SDS011;7545;52.092;7.006;2023-05-23T09:10:00;5.47;;;2.75;;
14907;SDS011;7545;52.092;7.006;2023-05-23T09:12:27;5.32;;;3.00;;
14907;SDS011;7545;52.092;7.006;2023-05-23T09:14:53;2.78;;;2.17;;
14907;SDS011;7545;52.092;7.006;2023-05-23T09:17:19;6.63;;;2.70;;
14907;SDS011;7545;52.092;7.006;2023-05-23T09:19:45;7.20;;;2.65;;
14907;SDS011;7545;52.092;7.006;2023-05-23T09:22:11;7.60;;;2.60;;
14907;SDS011;7545;52.092;7.006;2023-05-23T09:24:37;4.93;;;2.45;;
14907;SDS011;7545;52.092;7.006;2023-05-23T09:27:06;6.45;;;2.10;;
14907;SDS011;7545;52.092;7.006;2023-05-23T09:29:36;5.35;;;2.03;;
14907;SDS011;7545;52.092;7.006;2023-05-23T09:32:10;3.75;;;1.98;;
14907;SDS011;7545;52.092;7.006;2023-05-23T09:34:53;5.78;;;3.17;;
14907;SDS011;7545;52.092;7.006;2023-05-23T09:37:28;6.28;;;2.47;;
14907;SDS011;7545;52.092;7.006;2023-05-23T09:39:55;26.67;;;3.85;;
14907;SDS011;7545;52.092;7.006;2023-05-23T09:42:22;6.88;;;2.40;;
14907;SDS011;7545;52.092;7.006;2023-05-23T09:44:48;7.82;;;2.60;;
14907;SDS011;7545;52.092;7.006;2023-05-23T09:47:14;5.05;;;2.47;;
14907;SDS011;7545;52.092;7.006;2023-05-23T09:49:44;8.23;;;2.30;;
14907;SDS011;7545;52.092;7.006;2023-05-23T09:52:10;5.95;;;2.35;;
14907;SDS011;7545;52.092;7.006;2023-05-23T09:54:37;7.60;;;2.55;;
14907;SDS011;7545;52.092;7.006;2023-05-23T09:57:03;8.93;;;2.58;;
14907;SDS011;7545;52.092;7.006;2023-05-23T09:59:39;9.10;;;3.10;;
14907;SDS011;7545;52.092;7.006;2023-05-23T10:02:15;9.68;;;3.00;;
14907;SDS011;7545;52.092;7.006;2023-05-23T10:04:46;13.10;;;3.00;;
14907;SDS011;7545;52.092;7.006;2023-05-23T10:07:17;10.23;;;2.58;;
14907;SDS011;7545;52.092;7.006;2023-05-23T10:09:50;7.28;;;1.85;;
14907;SDS011;7545;52.092;7.006;2023-05-23T10:15:12;6.10;;;2.08;;
14907;SDS011;7545;52.092;7.006;2023-05-23T10:17:45;7.35;;;2.35;;
14907;SDS011;7545;52.092;7.006;2023-05-23T10:20:27;10.00;;;2.20;;
14907;SDS011;7545;52.092;7.006;2023-05-23T10:22:56;10.52;;;2.83;;
14907;SDS011;7545;52.092;7.006;2023-05-23T10:25:23;9.20;;;2.58;;
14907;SDS011;7545;52.092;7.006;2023-05-23T10:27:53;11.25;;;2.50;;
14907;SDS011;7545;52.092;7.006;2023-05-23T10:30:26;9.23;;;2.78;;
14907;SDS011;7545;52.092;7.006;2023-05-23T10:32:52;9.63;;;2.20;;
14907;SDS011;7545;52.092;7.006;2023-05-23T10:35:37;8.32;;;2.17;;
14907;SDS011;7545;52.092;7.006;2023-05-23T10:44:01;6.57;;;2.20;;
14907;SDS011;7545;52.092;7.006;2023-05-23T10:49:13;5.85;;;1.90;;
14907;SDS011;7545;52.092;7.006;2023-05-23T10:51:39;8.77;;;2.13;;
14907;SDS011;7545;52.092;7.006;2023-05-23T10:54:09;6.80;;;2.05;;
14907;SDS011;7545;52.092;7.006;2023-05-23T10:56:35;10.80;;;2.90;;
14907;SDS011;7545;52.092;7.006;2023-05-23T10:59:01;7.38;;;2.10;;
14907;SDS011;7545;52.092;7.006;2023-05-23T11:01:30;16.00;;;3.00;;
14907;SDS011;7545;52.092;7.006;2023-05-23T11:03:56;9.02;;;2.55;;
14907;SDS011;7545;52.092;7.006;2023-05-23T11:14:30;5.60;;;2.20;;
14907;SDS011;7545;52.092;7.006;2023-05-23T11:16:59;7.70;;;2.30;;
14907;SDS011;7545;52.092;7.006;2023-05-23T11:19:38;7.82;;;3.13;;
14907;SDS011;7545;52.092;7.006;2023-05-23T11:22:19;7.30;;;2.45;;
14907;SDS011;7545;52.092;7.006;2023-05-23T11:27:27;5.50;;;2.20;;
14907;SDS011;7545;52.092;7.006;2023-05-23T11:30:11;9.20;;;2.67;;
14907;SDS011;7545;52.092;7.006;2023-05-23T11:32:39;9.68;;;2.42;;
14907;SDS011;7545;52.092;7.006;2023-05-23T11:35:06;5.65;;;2.22;;
14907;SDS011;7545;52.092;7.006;2023-05-23T11:37:36;3.25;;;2.22;;
14907;SDS011;7545;52.092;7.006;2023-05-23T11:43:07;6.45;;;2.40;;
14907;SDS011;7545;52.092;7.006;2023-05-23T11:45:35;5.72;;;2.30;;
14907;SDS011;7545;52.092;7.006;2023-05-23T11:48:11;7.63;;;2.20;;
14907;SDS011;7545;52.092;7.006;2023-05-23T11:50:50;6.07;;;2.55;;
14907;SDS011;7545;52.092;7.006;2023-05-23T11:53:18;11.90;;;3.20;;
14907;SDS011;7545;52.092;7.006;2023-05-23T11:58:19;9.35;;;2.40;;
14907;SDS011;7545;52.092;7.006;2023-05-23T12:00:46;6.43;;;2.13;;
14907;SDS011;7545;52.092;7.006;2023-05-23T12:03:12;8.40;;;2.50;;
14907;SDS011;7545;52.092;7.006;2023-05-23T12:05:37;9.68;;;2.20;;
14907;SDS011;7545;52.092;7.006;2023-05-23T12:08:03;5.25;;;2.35;;
14907;SDS011;7545;52.092;7.006;2023-05-23T12:10:29;5.63;;;2.22;;
14907;SDS011;7545;52.092;7.006;2023-05-23T12:12:54;5.70;;;2.35;;
14907;SDS011;7545;52.092;7.006;2023-05-23T12:15:24;5.43;;;2.35;;
14907;SDS011;7545;52.092;7.006;2023-05-23T12:17:53;6.65;;;2.65;;
14907;SDS011;7545;52.092;7.006;2023-05-23T12:20:20;9.43;;;2.30;;
14907;SDS011;7545;52.092;7.006;2023-05-23T12:22:47;7.30;;;2.45;;
14907;SDS011;7545;52.092;7.006;2023-05-23T12:25:12;4.97;;;2.05;;
14907;SDS011;7545;52.092;7.006;2023-05-23T12:27:39;5.20;;;2.10;;
14907;SDS011;7545;52.092;7.006;2023-05-23T12:30:08;7.60;;;2.60;;
14907;SDS011;7545;52.092;7.006;2023-05-23T12:32:38;5.75;;;2.30;;
14907;SDS011;7545;52.092;7.006;2023-05-23T12:35:06;7.00;;;1.88;;
14907;SDS011;7545;52.092;7.006;2023-05-23T12:37:33;7.38;;;2.20;;
14907;SDS011;7545;52.092;7.006;2023-05-23T12:40:08;6.47;;;2.25;;
14907;SDS011;7545;52.092;7.006;2023-05-23T12:42:50;10.10;;;2.22;;
14907;SDS011;7545;52.092;7.006;2023-05-23T12:45:16;7.55;;;1.95;;
14907;SDS011;7545;52.092;7.006;2023-05-23T12:47:43;6.43;;;2.25;;
14907;SDS011;7545;52.092;7.006;2023-05-23T12:50:08;4.53;;;1.98;;
14907;SDS011;7545;52.092;7.006;2023-05-23T12:52:35;7.00;;;2.13;;
14907;SDS011;7545;52.092;7.006;2023-05-23T12:55:01;4.22;;;1.88;;
14907;SDS011;7545;52.092;7.006;2023-05-23T12:57:27;5.53;;;2.03;;
14907;SDS011;7545;52.092;7.006;2023-05-23T12:59:53;4.45;;;2.22;;
14907;SDS011;7545;52.092;7.006;2023-05-23T13:02:19;5.85;;;2.15;;
14907;SDS011;7545;52.092;7.006;2023-05-23T13:04:44;6.05;;;2.70;;
14907;SDS011;7545;52.092;7.006;2023-05-23T13:07:10;6.15;;;2.28;;
14907;SDS011;7545;52.092;7.006;2023-05-23T13:09:36;9.98;;;2.50;;
14907;SDS011;7545;52.092;7.006;2023-05-23T13:12:02;4.63;;;2.13;;
14907;SDS011;7545;52.092;7.006;2023-05-23T13:14:28;4.60;;;1.98;;
14907;SDS011;7545;52.092;7.006;2023-05-23T13:16:54;11.95;;;2.00;;
14907;SDS011;7545;52.092;7.006;2023-05-23T13:19:19;5.35;;;1.77;;
14907;SDS011;7545;52.092;7.006;2023-05-23T13:21:45;5.88;;;1.85;;
14907;SDS011;7545;52.092;7.006;2023-05-23T13:24:11;6.68;;;2.00;;
14907;SDS011;7545;52.092;7.006;2023-05-23T13:26:36;8.15;;;2.03;;
14907;SDS011;7545;52.092;7.006;2023-05-23T13:29:02;5.18;;;1.80;;
14907;SDS011;7545;52.092;7.006;2023-05-23T13:31:29;5.20;;;1.73;;
14907;SDS011;7545;52.092;7.006;2023-05-23T13:33:54;5.43;;;1.70;;
14907;SDS011;7545;52.092;7.006;2023-05-23T13:36:20;6.38;;;2.30;;
14907;SDS011;7545;52.092;7.006;2023-05-23T13:38:46;8.65;;;1.77;;
14907;SDS011;7545;52.092;7.006;2023-05-23T13:41:11;5.68;;;2.20;;
14907;SDS011;7545;52.092;7.006;2023-05-23T13:43:37;5.65;;;1.95;;
14907;SDS011;7545;52.092;7.006;2023-05-23T13:46:03;6.68;;;2.25;;
14907;SDS011;7545;52.092;7.006;2023-05-23T13:48:29;9.27;;;2.88;;
14907;SDS011;7545;52.092;7.006;2023-05-23T13:50:55;5.03;;;1.90;;
14907;SDS011;7545;52.092;7.006;2023-05-23T13:53:20;4.57;;;1.75;;
14907;SDS011;7545;52.092;7.006;2023-05-23T13:55:46;7.15;;;1.77;;
14907;SDS011;7545;52.092;7.006;2023-05-23T13:58:12;4.55;;;1.95;;
14907;SDS011;7545;52.092;7.006;2023-05-23T14:00:38;7.03;;;2.13;;
14907;SDS011;7545;52.092;7.006;2023-05-23T14:03:04;4.55;;;1.67;;
14907;SDS011;7545;52.092;7.006;2023-05-23T14:05:30;7.00;;;2.20;;
14907;SDS011;7545;52.092;7.006;2023-05-23T14:07:56;5.15;;;1.85;;
14907;SDS011;7545;52.092;7.006;2023-05-23T14:10:21;6.10;;;2.45;;
14907;SDS011;7545;52.092;7.006;2023-05-23T14:12:47;7.30;;;2.58;;
14907;SDS011;7545;52.092;7.006;2023-05-23T14:15:13;4.03;;;1.65;;
14907;SDS011;7545;52.092;7.006;2023-05-23T14:17:39;3.45;;;1.38;;
14907;SDS011;7545;52.092;7.006;2023-05-23T14:20:05;4.82;;;1.92;;
14907;SDS011;7545;52.092;7.006;2023-05-23T14:22:31;8.60;;;1.70;;
14907;SDS011;7545;52.092;7.006;2023-05-23T14:24:57;5.95;;;2.33;;
14907;SDS011;7545;52.092;7.006;2023-05-23T14:27:23;8.57;;;1.60;;
14907;SDS011;7545;52.092;7.006;2023-05-23T14:29:48;7.85;;;2.28;;
14907;SDS011;7545;52.092;7.006;2023-05-23T14:32:14;5.75;;;1.95;;
14907;SDS011;7545;52.092;7.006;2023-05-23T14:34:40;7.05;;;1.75;;
14907;SDS011;7545;52.092;7.006;2023-05-23T14:37:05;7.10;;;1.52;;
14907;SDS011;7545;52.092;7.006;2023-05-23T14:39:31;7.70;;;2.00;;
14907;SDS011;7545;52.092;7.006;2023-05-23T14:41:57;8.20;;;3.00;;
14907;SDS011;7545;52.092;7.006;2023-05-23T14:44:22;6.10;;;1.80;;
14907;SDS011;7545;52.092;7.006;2023-05-23T14:46:48;8.50;;;2.75;;
14907;SDS011;7545;52.092;7.006;2023-05-23T14:49:14;7.55;;;2.00;;
14907;SDS011;7545;52.092;7.006;2023-05-23T14:51:41;11.05;;;2.30;;
14907;SDS011;7545;52.092;7.006;2023-05-23T14:54:07;6.05;;;1.98;;
14907;SDS011;7545;52.092;7.006;2023-05-23T14:56:33;6.32;;;2.30;;
14907;SDS011;7545;52.092;7.006;2023-05-23T14:59:00;6.32;;;1.63;;
14907;SDS011;7545;52.092;7.006;2023-05-23T15:01:26;8.20;;;2.40;;
14907;SDS011;7545;52.092;7.006;2023-05-23T15:03:52;5.70;;;2.20;;
14907;SDS011;7545;52.092;7.006;2023-05-23T15:06:17;3.85;;;1.77;;
14907;SDS011;7545;52.092;7.006;2023-05-23T15:08:43;6.40;;;1.88;;
14907;SDS011;7545;52.092;7.006;2023-05-23T15:11:10;8.98;;;2.08;;
14907;SDS011;7545;52.092;7.006;2023-05-23T15:13:36;7.05;;;1.67;;
14907;SDS011;7545;52.092;7.006;2023-05-23T15:16:01;8.77;;;2.88;;
14907;SDS011;7545;52.092;7.006;2023-05-23T15:18:27;5.32;;;1.88;;
14907;SDS011;7545;52.092;7.006;2023-05-23T15:20:53;5.68;;;2.05;;
14907;SDS011;7545;52.092;7.006;2023-05-23T15:23:18;8.60;;;2.17;;
14907;SDS011;7545;52.092;7.006;2023-05-23T15:25:44;6.25;;;2.15;;
14907;SDS011;7545;52.092;7.006;2023-05-23T15:28:10;8.60;;;2.95;;
14907;SDS011;7545;52.092;7.006;2023-05-23T15:30:35;8.05;;;1.55;;
14907;SDS011;7545;52.092;7.006;2023-05-23T15:33:02;6.38;;;1.52;;
14907;SDS011;7545;52.092;7.006;2023-05-23T15:35:27;5.05;;;2.03;;